Time;durP1;ratioP1;P1;durP2;ratioP2;P2;SDS_P1;SDS_P2;PMS_P1;PMS_P2;Temp;Humidity;BMP_temperature;BMP_pressure;BME280_temperature;BME280_humidity;BME280_pressure;Samples;Min_cycle;Max_cycle;Signal;HPM_P1;HPM_P2
2022/04/20 00:02:02;;;;;;;0.40;0.30;;;;;;;8.39;100.00;95174.00;5132577;28;20430;-52
2022/04/20 00:04:31;;;;;;;0.40;0.30;;;;;;;8.05;100.00;95161.16;5132521;28;20778;-52
2022/04/20 00:06:59;;;;;;;0.30;0.20;;;;;;;8.49;100.00;95187.25;5132048;28;20473;-53
2022/04/20 00:09:29;;;;;;;0.30;0.20;;;;;;;8.50;100.00;95191.50;5132399;28;20417;-52
2022/04/20 00:11:57;;;;;;;0.30;0.20;;;;;;;8.26;100.00;95188.44;5132096;28;20497;-52
2022/04/20 00:14:26;;;;;;;0.40;0.30;;;;;;;8.42;100.00;95186.72;5132574;28;20898;-51
2022/04/20 00:16:54;;;;;;;0.50;0.50;;;;;;;7.86;100.00;95183.75;5132316;28;20530;-52
2022/04/20 00:19:23;;;;;;;0.30;0.20;;;;;;;7.90;100.00;95186.66;5132328;28;20846;-51
2022/04/20 00:21:52;;;;;;;0.40;0.30;;;;;;;8.46;100.00;95185.13;5132304;28;21017;-52
2022/04/20 00:24:21;;;;;;;0.40;0.33;;;;;;;8.75;100.00;95183.66;5132316;28;20866;-52
2022/04/20 00:26:50;;;;;;;0.30;0.20;;;;;;;8.66;100.00;95186.00;5132191;28;20915;-52
2022/04/20 00:29:19;;;;;;;0.30;0.20;;;;;;;8.50;100.00;95168.50;5132434;28;20446;-52
2022/04/20 00:31:47;;;;;;;0.40;0.30;;;;;;;7.88;100.00;95180.88;5132990;27;20435;-52
2022/04/20 00:34:16;;;;;;;0.43;0.43;;;;;;;7.54;100.00;95183.00;5135830;27;20514;-52
2022/04/20 00:36:45;;;;;;;0.30;0.27;;;;;;;7.78;100.00;95178.97;5135864;27;20525;-52
2022/04/20 00:39:13;;;;;;;0.80;0.67;;;;;;;7.77;100.00;95166.03;5135904;27;20426;-52
2022/04/20 00:41:42;;;;;;;0.83;0.83;;;;;;;7.34;100.00;95186.28;5135790;27;20430;-52
2022/04/20 00:44:12;;;;;;;0.30;0.20;;;;;;;7.09;100.00;95180.81;5135991;27;20510;-52
2022/04/20 00:46:41;;;;;;;0.30;0.20;;;;;;;7.47;100.00;95187.69;5136013;27;20530;-52
2022/04/20 00:49:11;;;;;;;0.40;0.40;;;;;;;8.32;100.00;95173.47;5136148;27;20525;-52
2022/04/20 00:51:57;;;;;;;0.33;0.30;;;;;;;8.31;100.00;95177.94;5135909;27;20651;-52
2022/04/20 00:54:26;;;;;;;0.70;0.70;;;;;;;7.68;100.00;95169.16;5135465;27;20440;-52
2022/04/20 00:56:54;;;;;;;0.40;0.20;;;;;;;8.04;100.00;95175.44;5135652;27;20423;-52
2022/04/20 00:59:26;;;;;;;0.60;0.40;;;;;;;8.64;100.00;95171.44;5135442;27;20466;-52
2022/04/20 01:01:56;;;;;;;0.93;0.93;;;;;;;8.44;100.00;95172.19;5135327;27;20430;-52
2022/04/20 01:04:26;;;;;;;0.30;0.30;;;;;;;8.02;100.00;95174.09;5135791;27;20423;-52
2022/04/20 01:06:56;;;;;;;0.37;0.30;;;;;;;8.37;100.00;95161.06;5135381;27;20458;-52
2022/04/20 01:09:25;;;;;;;0.30;0.20;;;;;;;8.65;100.00;95165.13;5135253;27;20914;-52
2022/04/20 01:11:55;;;;;;;0.63;0.63;;;;;;;9.02;99.37;95167.56;5134991;27;20505;-52
2022/04/20 01:14:25;;;;;;;0.30;0.20;;;;;;;8.97;100.00;95162.28;5135260;27;20462;-52
2022/04/20 01:16:53;;;;;;;0.30;0.20;;;;;;;9.18;97.01;95164.69;5135185;27;20423;-52
2022/04/20 01:19:22;;;;;;;0.87;0.47;;;;;;;8.92;100.00;95158.56;5135414;27;20819;-52
2022/04/20 01:21:51;;;;;;;0.40;0.33;;;;;;;8.70;100.00;95157.97;5135062;27;20956;-53
2022/04/20 01:24:20;;;;;;;0.30;0.20;;;;;;;8.63;100.00;95156.66;5134932;27;20778;-51
2022/04/20 01:26:49;;;;;;;1.90;1.90;;;;;;;8.44;100.00;95164.25;5134924;27;20460;-52
2022/04/20 01:29:19;;;;;;;0.30;0.20;;;;;;;8.68;100.00;95168.03;5134519;27;20473;-52
2022/04/20 01:31:47;;;;;;;0.30;0.20;;;;;;;8.70;100.00;95170.44;5135216;27;20545;-52
2022/04/20 01:34:15;;;;;;;0.30;0.20;;;;;;;8.18;100.00;95165.19;5134764;27;20464;-52
2022/04/20 01:36:44;;;;;;;0.50;0.50;;;;;;;7.99;100.00;95175.41;5134797;27;20554;-52
2022/04/20 01:39:14;;;;;;;0.30;0.30;;;;;;;8.45;100.00;95181.69;5134761;27;20499;-52
2022/04/20 01:41:42;;;;;;;0.40;0.30;;;;;;;8.50;100.00;95171.13;5135004;27;20429;-52
2022/04/20 01:44:11;;;;;;;0.40;0.30;;;;;;;8.36;100.00;95148.91;5134286;27;21099;-52
2022/04/20 01:46:39;;;;;;;0.80;0.80;;;;;;;8.18;100.00;95162.53;5134937;27;20526;-52
2022/04/20 01:49:07;;;;;;;0.57;0.57;;;;;;;8.43;100.00;95160.03;5134547;27;20434;-52
2022/04/20 01:51:50;;;;;;;1.63;0.50;;;;;;;8.58;100.00;95165.34;5134794;27;20501;-52
2022/04/20 01:54:20;;;;;;;0.40;0.30;;;;;;;8.36;100.00;95170.03;5134398;27;20477;-52
2022/04/20 01:56:50;;;;;;;0.30;0.20;;;;;;;7.89;100.00;95105.94;5134442;27;21016;-52
2022/04/20 01:59:19;;;;;;;0.40;0.30;;;;;;;8.31;100.00;95170.03;5134330;27;20491;-52
2022/04/20 02:04:34;;;;;;;0.63;0.63;;;;;;;8.63;100.00;95152.16;5134262;27;20433;-53
2022/04/20 02:07:02;;;;;;;3.30;0.77;;;;;;;8.07;100.00;95161.69;5133953;27;20463;-53
2022/04/20 02:09:32;;;;;;;0.30;0.20;;;;;;;7.78;100.00;95162.34;5134158;27;20957;-52
2022/04/20 02:12:00;;;;;;;0.40;0.40;;;;;;;7.82;100.00;95166.84;5133503;27;20558;-53
2022/04/20 02:14:28;;;;;;;0.53;0.50;;;;;;;7.69;100.00;95162.00;5134028;27;20506;-52
2022/04/20 02:16:57;;;;;;;0.83;0.83;;;;;;;7.59;100.00;95165.38;5133873;27;20912;-52
2022/04/20 02:19:25;;;;;;;0.50;0.40;;;;;;;8.18;100.00;95160.69;5134363;27;20429;-52
2022/04/20 02:21:54;;;;;;;0.40;0.30;;;;;;;8.59;100.00;95159.03;5133884;27;20518;-52
2022/04/20 02:24:22;;;;;;;0.37;0.27;;;;;;;7.07;100.00;94982.63;5133816;27;20461;-52
2022/04/20 02:26:52;;;;;;;0.30;0.20;;;;;;;8.15;100.00;95165.69;5134122;27;20470;-52
2022/04/20 02:29:20;;;;;;;0.30;0.20;;;;;;;8.02;100.00;95160.91;5133930;27;20505;-52
2022/04/20 02:31:49;;;;;;;0.50;0.50;;;;;;;7.81;100.00;95164.47;5133736;27;20415;-52
2022/04/20 02:34:17;;;;;;;0.60;0.60;;;;;;;8.32;100.00;95163.69;5133980;27;20871;-52
2022/04/20 02:36:46;;;;;;;0.30;0.20;;;;;;;7.51;100.00;95168.47;5133650;27;20502;-52
2022/04/20 02:39:14;;;;;;;0.60;0.37;;;;;;;7.49;100.00;95172.41;5133854;27;20513;-52
2022/04/20 02:41:43;;;;;;;0.40;0.30;;;;;;;7.10;100.00;95127.06;5133967;27;20792;-52
2022/04/20 02:44:14;;;;;;;0.30;0.20;;;;;;;7.69;100.00;95173.34;5133790;27;20510;-52
2022/04/20 02:46:43;;;;;;;0.70;0.70;;;;;;;7.27;100.00;95182.28;5133476;27;20423;-52
2022/04/20 02:49:12;;;;;;;2.60;1.03;;;;;;;7.43;100.00;95184.00;5133426;27;20459;-52
2022/04/20 02:51:40;;;;;;;0.40;0.37;;;;;;;7.16;100.00;95165.56;5133314;27;20469;-52
2022/04/20 02:54:08;;;;;;;0.40;0.40;;;;;;;7.77;100.00;95166.81;5132721;27;20423;-52
2022/04/20 02:56:37;;;;;;;3.20;1.53;;;;;;;7.74;100.00;95163.91;5133471;27;20548;-52
2022/04/20 02:59:05;;;;;;;0.30;0.30;;;;;;;8.15;100.00;95168.31;5133198;27;20942;-52
2022/04/20 03:01:35;;;;;;;0.50;0.50;;;;;;;8.02;100.00;95163.53;5133312;27;20415;-52
2022/04/20 03:04:04;;;;;;;0.40;0.40;;;;;;;8.46;100.00;95166.63;5133544;27;20453;-53
2022/04/20 03:06:33;;;;;;;0.40;0.33;;;;;;;8.39;100.00;95160.81;5133377;27;20926;-52
2022/04/20 03:09:01;;;;;;;0.40;0.30;;;;;;;8.36;100.00;95154.19;5133613;27;20462;-52
2022/04/20 03:11:31;;;;;;;0.30;0.20;;;;;;;8.41;100.00;95163.97;5132911;27;20592;-52
2022/04/20 03:13:59;;;;;;;0.30;0.20;;;;;;;8.29;100.00;95159.72;5133314;27;20529;-52
2022/04/20 03:16:28;;;;;;;0.30;0.20;;;;;;;7.99;100.00;95185.97;5131888;27;20568;-52
2022/04/20 03:18:58;;;;;;;0.40;0.27;;;;;;;7.59;100.00;95181.19;5133284;27;20497;-52
2022/04/20 03:21:26;;;;;;;0.30;0.20;;;;;;;7.71;100.00;95175.75;5133419;27;20473;-52
2022/04/20 03:23:55;;;;;;;0.70;0.60;;;;;;;7.91;100.00;95178.53;5133138;27;20483;-52
2022/04/20 03:26:23;;;;;;;0.40;0.30;;;;;;;8.05;100.00;95177.00;5132992;27;20427;-52
2022/04/20 03:28:52;;;;;;;0.30;0.20;;;;;;;8.10;100.00;95171.75;5133245;28;20462;-53
2022/04/20 03:31:20;;;;;;;0.40;0.30;;;;;;;7.52;100.00;95159.53;5133161;28;20514;-52
2022/04/20 03:33:49;;;;;;;0.47;0.30;;;;;;;8.22;100.00;95167.03;5132998;28;20993;-52
2022/04/20 03:36:18;;;;;;;1.73;0.40;;;;;;;8.07;100.00;95168.84;5132551;28;20466;-52
2022/04/20 03:38:47;;;;;;;0.40;0.30;;;;;;;7.53;100.00;95178.78;5132762;28;20494;-52
2022/04/20 03:41:15;;;;;;;0.40;0.40;;;;;;;7.68;100.00;95160.44;5132431;28;20469;-52
2022/04/20 03:43:44;;;;;;;0.30;0.20;;;;;;;7.71;100.00;95172.31;5132579;28;20479;-52
2022/04/20 03:46:12;;;;;;;0.40;0.30;;;;;;;8.10;100.00;95170.94;5132592;28;20446;-53
2022/04/20 03:48:42;;;;;;;0.30;0.20;;;;;;;8.36;100.00;95164.75;5132521;28;20430;-53
2022/04/20 03:51:10;;;;;;;0.70;0.40;;;;;;;7.97;100.00;95164.28;5131909;28;20509;-53
2022/04/20 03:53:40;;;;;;;0.40;0.30;;;;;;;7.94;100.00;95154.25;5132000;28;21026;-53
2022/04/20 03:56:08;;;;;;;1.33;0.90;;;;;;;8.04;100.00;95164.06;5131911;28;20967;-53
2022/04/20 03:58:37;;;;;;;0.70;0.70;;;;;;;8.18;100.00;95154.63;5132531;28;20553;-53
2022/04/20 04:01:05;;;;;;;0.40;0.40;;;;;;;8.24;100.00;95156.25;5132489;28;20430;-52
2022/04/20 04:03:35;;;;;;;0.57;0.50;;;;;;;8.30;100.00;95168.41;5132421;27;20763;-52
2022/04/20 04:06:04;;;;;;;0.40;0.40;;;;;;;8.35;100.00;95165.03;5133901;27;20933;-52
2022/04/20 04:08:32;;;;;;;0.40;0.30;;;;;;;8.32;100.00;95161.84;5136422;27;20514;-53
2022/04/20 04:11:02;;;;;;;0.30;0.20;;;;;;;8.06;100.00;95152.19;5136110;27;21042;-51
2022/04/20 04:13:30;;;;;;;0.87;0.87;;;;;;;7.87;100.00;95169.50;5136623;27;20439;-52
2022/04/20 04:15:59;;;;;;;0.40;0.40;;;;;;;7.79;100.00;95179.75;5136398;27;21033;-52
2022/04/20 04:18:27;;;;;;;1.27;1.23;;;;;;;7.60;100.00;95182.81;5135354;27;20501;-52
2022/04/20 04:20:56;;;;;;;0.30;0.20;;;;;;;7.78;100.00;95178.97;5136199;27;20429;-52
2022/04/20 04:23:24;;;;;;;1.37;0.90;;;;;;;7.99;100.00;95174.59;5136160;27;20458;-52
2022/04/20 04:25:52;;;;;;;0.30;0.30;;;;;;;7.57;100.00;95177.22;5136259;27;20462;-52
2022/04/20 04:28:22;;;;;;;1.23;0.63;;;;;;;7.85;100.00;95178.72;5136003;27;20410;-52
2022/04/20 04:30:51;;;;;;;0.57;0.53;;;;;;;7.79;100.00;95185.03;5135539;27;20836;-52
2022/04/20 04:33:19;;;;;;;0.47;0.47;;;;;;;7.55;100.00;95172.22;5135818;27;20428;-52
2022/04/20 04:35:48;;;;;;;0.50;0.50;;;;;;;7.34;100.00;95164.41;5136134;27;20858;-52
2022/04/20 04:38:16;;;;;;;2.53;0.93;;;;;;;7.63;100.00;95177.03;5136130;27;20537;-52
2022/04/20 04:40:44;;;;;;;1.13;1.13;;;;;;;7.54;100.00;95185.63;5135435;27;20869;-52
2022/04/20 04:43:14;;;;;;;0.43;0.43;;;;;;;7.66;100.00;95189.69;5135306;27;20477;-52
2022/04/20 04:48:39;;;;;;;0.40;0.40;;;;;;;8.07;100.00;95172.25;5135734;27;20470;-53
2022/04/20 04:51:09;;;;;;;1.43;0.67;;;;;;;7.83;100.00;95181.63;5135731;27;20533;-53
2022/04/20 04:53:38;;;;;;;0.40;0.40;;;;;;;7.43;100.00;95182.16;5135859;27;20423;-52
2022/04/20 04:56:11;;;;;;;0.33;0.27;;;;;;;7.42;100.00;95185.84;5135364;27;20487;-52
2022/04/20 04:58:39;;;;;;;2.73;0.83;;;;;;;7.85;100.00;95184.81;5135254;27;20466;-52
2022/04/20 05:01:09;;;;;;;0.30;0.30;;;;;;;7.44;100.00;95178.47;5135633;27;20457;-53
2022/04/20 05:03:37;;;;;;;0.73;0.73;;;;;;;7.57;100.00;95172.75;5135657;27;20418;-53
2022/04/20 05:06:06;;;;;;;0.57;0.30;;;;;;;7.52;100.00;95190.38;5135230;27;20465;-52
2022/04/20 05:08:34;;;;;;;0.40;0.30;;;;;;;7.87;100.00;95181.94;5134646;27;20418;-52
2022/04/20 05:11:03;;;;;;;0.57;0.57;;;;;;;8.05;100.00;95186.75;5134879;27;20485;-52
2022/04/20 05:13:31;;;;;;;0.93;0.93;;;;;;;7.75;100.00;95182.09;5135050;27;20483;-52
2022/04/20 05:15:59;;;;;;;0.40;0.40;;;;;;;8.00;100.00;95181.44;5134968;27;20518;-52
2022/04/20 05:18:29;;;;;;;0.40;0.30;;;;;;;8.26;100.00;95175.25;5134157;27;20553;-52
2022/04/20 05:20:57;;;;;;;0.80;0.47;;;;;;;8.14;100.00;95174.69;5134843;27;20994;-52
2022/04/20 05:23:26;;;;;;;0.40;0.30;;;;;;;7.50;100.00;95176.66;5134849;27;20950;-52
2022/04/20 05:25:54;;;;;;;1.13;0.30;;;;;;;7.50;100.00;95179.28;5134656;27;20487;-52
2022/04/20 05:28:23;;;;;;;0.77;0.77;;;;;;;7.60;100.00;95176.72;5135178;27;20426;-52
2022/04/20 05:30:51;;;;;;;0.50;0.50;;;;;;;8.17;100.00;95180.22;5134849;27;20949;-52
2022/04/20 05:33:19;;;;;;;0.43;0.33;;;;;;;8.38;100.00;95175.06;5135184;27;20419;-52
2022/04/20 05:35:49;;;;;;;0.40;0.30;;;;;;;8.78;100.00;95180.47;5134745;27;20469;-52
2022/04/20 05:43:49;;;;;;;0.40;0.40;;;;;;;8.32;100.00;95170.81;5134379;27;20438;-52
2022/04/20 05:46:17;;;;;;;1.50;1.40;;;;;;;8.73;100.00;95170.69;5134770;27;20950;-50
2022/04/20 05:48:46;;;;;;;0.53;0.53;;;;;;;8.90;100.00;95176.53;5134767;27;20453;-52
2022/04/20 05:51:16;;;;;;;1.90;0.83;;;;;;;8.53;100.00;95185.66;5134282;27;20454;-52
2022/04/20 05:53:44;;;;;;;0.80;0.80;;;;;;;7.65;100.00;95079.16;5134133;27;20438;-52
2022/04/20 05:56:12;;;;;;;1.80;0.40;;;;;;;8.60;100.00;95191.53;5134137;27;20430;-52
2022/04/20 05:58:41;;;;;;;0.73;0.73;;;;;;;8.75;100.00;95183.66;5134156;27;20927;-52
2022/04/20 06:01:09;;;;;;;0.50;0.40;;;;;;;9.01;100.00;95189.75;5134307;27;20450;-52
2022/04/20 06:03:37;;;;;;;0.40;0.30;;;;;;;9.32;100.00;95176.31;5134118;27;21006;-52
2022/04/20 06:06:06;;;;;;;0.40;0.40;;;;;;;9.47;100.00;95180.81;5134190;27;20816;-52
2022/04/20 06:08:36;;;;;;;0.50;0.33;;;;;;;9.51;100.00;95187.19;5133992;27;20458;-52
2022/04/20 06:11:04;;;;;;;0.30;0.30;;;;;;;9.42;100.00;95180.81;5133891;27;20509;-52
2022/04/20 06:13:33;;;;;;;0.30;0.20;;;;;;;9.91;100.00;95187.13;5133912;27;20855;-55
2022/04/20 06:16:05;;;;;;;0.47;0.37;;;;;;;10.24;97.88;95188.41;5133815;27;20435;-52
2022/04/20 06:18:34;;;;;;;0.40;0.30;;;;;;;9.49;100.00;95179.47;5134165;27;20489;-52
2022/04/20 06:21:02;;;;;;;0.47;0.47;;;;;;;9.28;100.00;95175.28;5133671;27;20466;-52
2022/04/20 06:23:31;;;;;;;0.40;0.30;;;;;;;9.28;100.00;95161.25;5133927;27;20509;-52
2022/04/20 06:26:01;;;;;;;0.30;0.20;;;;;;;9.52;100.00;95155.16;5133681;27;20454;-52
2022/04/20 06:28:30;;;;;;;0.70;0.67;;;;;;;8.71;100.00;95154.28;5133431;27;20469;-52
2022/04/20 06:30:58;;;;;;;0.50;0.40;;;;;;;8.69;100.00;95145.03;5133033;27;20477;-52
2022/04/20 06:33:27;;;;;;;0.30;0.20;;;;;;;9.50;100.00;95148.53;5133959;27;20415;-52
2022/04/20 06:35:55;;;;;;;0.43;0.43;;;;;;;9.36;100.00;95142.97;5133382;27;20423;-52
2022/04/20 06:38:24;;;;;;;0.40;0.30;;;;;;;9.41;100.00;95140.34;5133719;27;20541;-52
2022/04/20 06:40:52;;;;;;;0.50;0.37;;;;;;;9.82;100.00;95125.19;5133460;27;20466;-52
2022/04/20 06:43:22;;;;;;;0.40;0.30;;;;;;;9.00;100.00;95132.69;5133286;27;20520;-52
2022/04/20 06:45:51;;;;;;;0.43;0.40;;;;;;;9.10;100.00;95127.41;5133291;27;20470;-52
2022/04/20 06:48:19;;;;;;;0.60;0.60;;;;;;;9.02;100.00;95128.72;5132791;27;20423;-52
2022/04/20 06:50:48;;;;;;;0.67;0.67;;;;;;;8.95;100.00;95130.81;5133616;27;20502;-52
2022/04/20 06:58:50;;;;;;;0.50;0.43;;;;;;;10.58;100.00;95130.22;5133215;27;20462;-52
2022/04/20 07:01:19;;;;;;;1.10;0.70;;;;;;;10.26;100.00;95120.06;5133349;27;20477;-51
2022/04/20 07:03:47;;;;;;;0.50;0.50;;;;;;;10.39;100.00;95127.41;5132979;27;20883;-51
2022/04/20 07:06:16;;;;;;;3.03;1.03;;;;;;;10.30;100.00;95122.94;5133043;27;20961;-52
2022/04/20 07:08:44;;;;;;;0.30;0.23;;;;;;;10.88;95.00;95119.44;5132900;27;20473;-51
2022/04/20 07:11:13;;;;;;;0.50;0.50;;;;;;;11.02;94.46;95116.97;5132761;27;20486;-51
2022/04/20 07:13:42;;;;;;;0.50;0.50;;;;;;;10.92;92.82;95120.50;5132372;27;20837;-51
2022/04/20 07:16:12;;;;;;;0.30;0.20;;;;;;;10.58;97.61;95127.56;5132885;27;20454;-51
2022/04/20 07:18:40;;;;;;;0.50;0.30;;;;;;;10.90;95.60;95127.13;5132783;27;20472;-51
2022/04/20 07:21:09;;;;;;;0.53;0.47;;;;;;;11.23;93.75;95123.72;5133028;27;20513;-51
2022/04/20 07:23:37;;;;;;;1.27;0.70;;;;;;;10.47;99.62;95128.69;5132861;27;20450;-51
2022/04/20 07:26:05;;;;;;;0.40;0.30;;;;;;;10.95;94.88;95133.19;5132778;27;20941;-51
2022/04/20 07:28:34;;;;;;;0.73;0.73;;;;;;;10.56;99.50;95135.81;5132829;27;20435;-51
2022/04/20 07:31:04;;;;;;;0.40;0.30;;;;;;;11.24;92.25;95136.69;5132440;28;20426;-51
2022/04/20 07:33:35;;;;;;;0.60;0.40;;;;;;;10.50;95.18;95139.53;5132074;28;20431;-51
2022/04/20 07:36:04;;;;;;;0.70;0.70;;;;;;;10.03;100.00;95139.16;5132374;27;20505;-52
2022/04/20 07:38:33;;;;;;;0.40;0.30;;;;;;;10.48;100.00;95143.53;5132261;28;20556;-52
2022/04/20 07:41:01;;;;;;;0.70;0.70;;;;;;;10.70;100.00;95136.78;5134009;27;20450;-52
2022/04/20 07:43:30;;;;;;;1.37;0.77;;;;;;;10.80;98.47;95135.94;5136513;27;20422;-52
2022/04/20 07:45:58;;;;;;;0.70;0.70;;;;;;;10.31;100.00;95124.53;5136310;27;20470;-52
2022/04/20 07:48:26;;;;;;;0.40;0.30;;;;;;;10.98;100.00;95123.91;5136337;27;20418;-51
2022/04/20 07:50:56;;;;;;;0.73;0.67;;;;;;;10.61;100.00;95132.31;5136386;27;20470;-52
2022/04/20 07:53:25;;;;;;;0.30;0.30;;;;;;;10.93;100.00;95122.06;5136862;27;20446;-52
2022/04/20 07:55:54;;;;;;;0.50;0.50;;;;;;;11.04;96.05;95110.31;5136531;27;20438;-52
2022/04/20 07:58:22;;;;;;;0.50;0.33;;;;;;;10.98;96.38;95108.00;5136586;27;20545;-52
2022/04/20 08:00:51;;;;;;;0.60;0.60;;;;;;;10.93;97.26;95111.44;5136401;27;20868;-52
2022/04/20 08:03:20;;;;;;;0.73;0.67;;;;;;;9.99;100.00;95107.13;5136799;27;20426;-52
2022/04/20 08:05:50;;;;;;;3.90;1.17;;;;;;;10.24;100.00;95105.50;5136202;27;20918;-52
2022/04/20 08:08:21;;;;;;;1.10;1.10;;;;;;;10.50;100.00;95112.25;5136380;27;20904;-52
2022/04/20 08:10:50;;;;;;;0.40;0.30;;;;;;;10.85;100.00;95101.44;5136462;27;20465;-52
2022/04/20 08:16:05;;;;;;;0.60;0.53;;;;;;;10.83;99.56;95107.00;5136529;27;20865;-51
2022/04/20 08:18:34;;;;;;;0.40;0.40;;;;;;;10.46;100.00;95114.66;5136439;27;20534;-52
2022/04/20 08:21:02;;;;;;;0.43;0.40;;;;;;;10.08;100.00;95108.19;5136070;27;20438;-51
2022/04/20 08:23:32;;;;;;;0.90;0.90;;;;;;;10.31;100.00;95103.34;5136281;27;20479;-51
2022/04/20 08:26:01;;;;;;;7.70;1.43;;;;;;;10.22;100.00;95094.38;5136068;27;20475;-51
2022/04/20 08:28:30;;;;;;;0.40;0.40;;;;;;;10.36;100.00;95096.16;5135262;27;20517;-51
2022/04/20 08:30:59;;;;;;;0.87;0.50;;;;;;;9.93;100.00;95094.19;5136064;27;20423;-51
2022/04/20 08:33:27;;;;;;;1.67;1.57;;;;;;;10.29;100.00;95087.72;5135902;27;20421;-51
2022/04/20 08:35:56;;;;;;;0.40;0.37;;;;;;;10.12;100.00;95082.75;5135747;27;20452;-51
2022/04/20 08:38:24;;;;;;;1.90;1.80;;;;;;;10.45;100.00;95075.19;5135755;27;20434;-51
2022/04/20 08:40:55;;;;;;;3.70;0.60;;;;;;;10.15;100.00;95074.28;5135996;27;20458;-51
2022/04/20 08:43:24;;;;;;;0.40;0.40;;;;;;;10.17;100.00;95072.13;5135791;27;20446;-51
2022/04/20 08:45:54;;;;;;;0.70;0.70;;;;;;;10.71;100.00;95056.19;5135505;27;20485;-51
2022/04/20 08:48:22;;;;;;;0.50;0.50;;;;;;;10.72;100.00;95059.66;5135866;27;20841;-51
2022/04/20 08:50:54;;;;;;;0.50;0.50;;;;;;;10.98;100.00;95052.31;5135777;27;20419;-51
2022/04/20 08:53:23;;;;;;;1.30;1.17;;;;;;;10.06;100.00;95065.28;5134334;27;20513;-51
2022/04/20 08:57:15;;;;;;;0.87;0.87;;;;;;;9.53;100.00;95060.72;5135735;27;20510;-51
2022/04/20 08:58:47;;;;;;;1.40;1.33;;;;;;;9.51;100.00;95052.25;5135062;27;20521;-50
2022/04/20 09:01:16;;;;;;;0.40;0.30;;;;;;;9.72;100.00;95024.66;5135608;27;20458;-50
2022/04/20 09:03:46;;;;;;;0.33;0.30;;;;;;;10.14;100.00;95038.25;5135325;27;20802;-51
2022/04/20 09:06:16;;;;;;;2.73;0.83;;;;;;;10.60;100.00;95054.69;5134642;27;20502;-51
2022/04/20 09:08:45;;;;;;;0.47;0.43;;;;;;;10.10;100.00;95057.59;5135021;27;20466;-51
2022/04/20 09:11:15;;;;;;;0.50;0.40;;;;;;;10.25;100.00;95046.16;5134700;27;20560;-51
2022/04/20 09:13:45;;;;;;;6.80;0.90;;;;;;;10.70;100.00;95045.88;5134787;27;20954;-51
2022/04/20 09:16:14;;;;;;;3.23;0.60;;;;;;;10.36;100.00;95056.44;5134945;27;20510;-51
2022/04/20 09:18:43;;;;;;;0.93;0.93;;;;;;;10.25;100.00;95052.25;5134890;27;20426;-50
2022/04/20 09:21:15;;;;;;;0.50;0.50;;;;;;;10.50;100.00;95043.38;5135251;27;20473;-50
2022/04/20 09:23:44;;;;;;;1.60;1.50;;;;;;;10.37;100.00;95031.53;5134940;27;20812;-51
2022/04/20 09:26:14;;;;;;;1.03;1.03;;;;;;;10.46;100.00;95032.53;5134792;27;20454;-51
2022/04/20 09:29:06;;;;;;;1.07;1.07;;;;;;;10.97;100.00;95018.88;5135182;27;20422;-50
2022/04/20 09:31:44;;;;;;;6.80;1.07;;;;;;;11.12;100.00;95022.19;5134867;27;20510;-50
2022/04/20 09:34:34;;;;;;;0.90;0.90;;;;;;;11.34;100.00;95014.56;5133204;27;20491;-51
2022/04/20 09:37:15;;;;;;;1.67;1.57;;;;;;;11.59;100.00;95015.34;5134693;27;20491;-51
2022/04/20 09:39:47;;;;;;;0.40;0.40;;;;;;;11.91;100.00;95008.38;5134862;27;20469;-51
2022/04/20 09:42:15;;;;;;;1.10;1.10;;;;;;;11.90;100.00;95000.69;5134561;27;20499;-51
2022/04/20 09:44:57;;;;;;;0.63;0.60;;;;;;;11.24;100.00;94979.38;5134760;27;20434;-51
2022/04/20 09:50:16;;;;;;;0.40;0.40;;;;;;;11.59;100.00;94986.16;5134295;27;20440;-50
2022/04/20 09:52:47;;;;;;;0.80;0.80;;;;;;;11.83;100.00;94992.28;5134327;27;20517;-50
2022/04/20 09:55:21;;;;;;;0.80;0.80;;;;;;;11.67;100.00;94983.69;5133810;27;20851;-50
2022/04/20 09:57:50;;;;;;;0.77;0.77;;;;;;;11.79;100.00;94978.78;5134210;27;20430;-51
2022/04/20 10:00:20;;;;;;;1.30;1.20;;;;;;;11.92;100.00;94982.59;5133933;27;20553;-52
2022/04/20 10:02:51;;;;;;;0.43;0.43;;;;;;;12.00;100.00;94985.41;5134422;27;20466;-50
2022/04/20 10:05:22;;;;;;;0.40;0.30;;;;;;;11.75;100.00;94982.28;5134249;27;20510;-50
2022/04/20 12:44:53;;;;;;;0.50;0.50;;;;;;;12.06;100.00;94794.91;5149254;27;20526;-52
2022/04/20 12:47:39;;;;;;;1.10;0.70;;;;;;;11.91;100.00;94774.69;5150607;27;20866;-51
2022/04/20 12:50:21;;;;;;;1.73;1.73;;;;;;;12.14;100.00;94775.66;5150431;27;20425;-51
2022/04/20 12:53:03;;;;;;;0.90;0.90;;;;;;;12.16;100.00;94744.25;5150376;27;20461;-51
2022/04/20 12:55:36;;;;;;;2.40;1.27;;;;;;;12.03;100.00;94760.94;5150070;27;20472;-51
2022/04/20 13:03:48;;;;;;;0.77;0.77;;;;;;;13.57;96.38;94736.09;5150264;27;20440;-50
2022/04/20 13:06:17;;;;;;;1.07;1.07;;;;;;;13.57;94.40;94757.41;5149912;27;20440;-50
2022/04/20 13:08:46;;;;;;;0.40;0.33;;;;;;;14.27;90.58;94764.78;5149808;27;20429;-51
2022/04/20 13:11:16;;;;;;;1.57;1.57;;;;;;;14.33;88.15;94736.91;5149937;27;20914;-51
2022/04/20 13:14:05;;;;;;;2.93;2.70;;;;;;;14.17;87.25;94744.47;5149592;27;20507;-51
2022/04/20 13:16:35;;;;;;;0.40;0.20;;;;;;;14.91;82.52;94721.47;5150084;27;20464;-52
2022/04/20 13:19:04;;;;;;;0.60;0.57;;;;;;;15.51;72.27;94708.22;5148327;27;20432;-52
2022/04/20 13:21:32;;;;;;;0.40;0.40;;;;;;;13.83;85.34;94725.63;5149794;27;20438;-51
2022/04/20 13:24:02;;;;;;;0.80;0.80;;;;;;;13.48;88.67;94723.81;5149623;27;20426;-51
2022/04/20 13:29:16;;;;;;;0.63;0.60;;;;;;;13.72;90.29;94698.44;5149830;27;20433;-51
2022/04/20 13:31:46;;;;;;;0.40;0.30;;;;;;;13.49;88.50;94738.69;5149954;27;20422;-52
2022/04/20 13:34:15;;;;;;;0.77;0.77;;;;;;;13.40;93.29;94741.28;5149784;27;20504;-54
2022/04/20 13:36:44;;;;;;;11.63;0.37;;;;;;;13.44;93.54;94730.81;5149785;27;20509;-52
2022/04/20 13:39:12;;;;;;;0.63;0.63;;;;;;;13.38;93.02;94730.91;5149335;27;20513;-51
2022/04/20 13:41:40;;;;;;;3.80;1.33;;;;;;;13.58;90.63;94719.03;5149752;27;20813;-52
2022/04/20 13:44:09;;;;;;;3.80;1.00;;;;;;;12.88;92.49;94717.88;5144242;27;20534;-52
2022/04/20 13:46:37;;;;;;;1.57;1.47;;;;;;;13.20;95.64;94699.16;5134702;27;20592;-51
2022/04/20 13:49:08;;;;;;;0.70;0.50;;;;;;;13.35;95.07;94722.75;5135215;27;20484;-51
2022/04/20 13:51:36;;;;;;;0.50;0.50;;;;;;;13.25;93.69;94723.78;5134989;27;20545;-50
2022/04/20 13:54:05;;;;;;;0.50;0.40;;;;;;;11.29;97.77;94470.00;5135539;27;20501;-51
2022/04/20 13:56:34;;;;;;;0.47;0.47;;;;;;;13.33;99.19;94717.72;5134907;27;20419;-51
2022/04/20 13:59:02;;;;;;;4.43;0.73;;;;;;;13.03;95.60;94725.56;5134804;27;20506;-51
2022/04/20 14:01:30;;;;;;;0.87;0.40;;;;;;;13.13;97.53;94720.84;5135133;27;20458;-50
2022/04/20 14:03:59;;;;;;;0.40;0.40;;;;;;;13.06;100.00;94709.81;5135103;27;20475;-50
2022/04/20 14:06:29;;;;;;;0.77;0.77;;;;;;;13.14;100.00;94721.63;5135009;27;20505;-51
2022/04/20 14:08:57;;;;;;;0.63;0.63;;;;;;;12.83;100.00;94725.97;5134877;27;20462;-51
2022/04/20 14:11:25;;;;;;;3.60;0.30;;;;;;;13.05;100.00;94720.75;5134053;27;20836;-51
2022/04/20 14:13:54;;;;;;;1.23;1.13;;;;;;;12.84;100.00;94714.25;5134739;27;20561;-51
2022/04/20 14:16:23;;;;;;;0.40;0.30;;;;;;;12.93;100.00;94717.81;5134962;27;20924;-50
2022/04/20 14:18:51;;;;;;;0.40;0.33;;;;;;;12.37;100.00;94729.50;5134913;27;20419;-50
2022/04/20 14:21:20;;;;;;;0.47;0.47;;;;;;;12.31;100.00;94722.72;5134896;27;20465;-50
2022/04/20 14:23:50;;;;;;;0.53;0.53;;;;;;;12.31;100.00;94716.63;5134863;27;20427;-51
2022/04/20 14:34:36;;;;;;;1.00;1.00;;;;;;;12.69;100.00;94726.00;5134544;27;20474;-51
2022/04/20 14:37:05;;;;;;;1.33;1.10;;;;;;;12.91;100.00;94720.75;5134762;27;20454;-51
2022/04/20 14:39:36;;;;;;;0.80;0.80;;;;;;;12.91;100.00;94707.44;5134228;27;20454;-51
2022/04/20 14:42:05;;;;;;;0.70;0.70;;;;;;;12.56;100.00;94706.31;5133521;27;21041;-51
2022/04/20 14:44:35;;;;;;;1.17;1.13;;;;;;;12.58;100.00;94682.88;5132675;27;21060;-52
2022/04/20 14:47:07;;;;;;;0.83;0.40;;;;;;;13.07;100.00;94706.09;5131997;27;20518;-51
2022/04/20 14:49:36;;;;;;;0.47;0.40;;;;;;;12.80;100.00;94710.63;5132883;27;20761;-51
2022/04/20 14:52:08;;;;;;;0.40;0.30;;;;;;;13.07;100.00;94710.59;5132600;27;20530;-51
2022/04/20 14:54:38;;;;;;;0.50;0.50;;;;;;;13.37;100.00;94699.28;5132441;27;20466;-51
2022/04/20 14:57:26;;;;;;;0.50;0.47;;;;;;;13.58;100.00;94710.25;5130700;27;20903;-52
2022/04/20 14:59:55;;;;;;;0.40;0.33;;;;;;;13.30;100.00;94722.88;5132083;27;20477;-52